sensor_id;sensor_type;location;lat;lon;timestamp;temperature;humidity
16485;DHT22;8353;47.856;12.344;2023-04-03T00:01:44;7.40;99.90
16485;DHT22;8353;47.856;12.344;2023-04-03T00:04:31;7.30;99.90
16485;DHT22;8353;47.856;12.344;2023-04-03T00:07:19;7.30;99.90
16485;DHT22;8353;47.856;12.344;2023-04-03T00:10:08;7.40;99.90
16485;DHT22;8353;47.856;12.344;2023-04-03T00:12:56;7.40;99.90
16485;DHT22;8353;47.856;12.344;2023-04-03T00:15:43;7.40;99.90
16485;DHT22;8353;47.856;12.344;2023-04-03T00:18:30;7.40;99.90
16485;DHT22;8353;47.856;12.344;2023-04-03T00:21:17;7.30;99.90
16485;DHT22;8353;47.856;12.344;2023-04-03T00:24:06;7.40;99.90
16485;DHT22;8353;47.856;12.344;2023-04-03T00:26:52;7.60;99.90
16485;DHT22;8353;47.856;12.344;2023-04-03T00:29:39;7.60;99.90
16485;DHT22;8353;47.856;12.344;2023-04-03T00:32:26;7.70;99.90
16485;DHT22;8353;47.856;12.344;2023-04-03T00:35:13;7.80;99.90
16485;DHT22;8353;47.856;12.344;2023-04-03T00:38:01;7.70;99.90
16485;DHT22;8353;47.856;12.344;2023-04-03T00:40:49;7.70;99.90
16485;DHT22;8353;47.856;12.344;2023-04-03T00:43:36;7.70;99.90
16485;DHT22;8353;47.856;12.344;2023-04-03T00:46:23;7.60;99.90
16485;DHT22;8353;47.856;12.344;2023-04-03T00:49:10;7.50;99.90
16485;DHT22;8353;47.856;12.344;2023-04-03T00:51:58;7.40;99.90
16485;DHT22;8353;47.856;12.344;2023-04-03T00:54:46;7.50;99.90
16485;DHT22;8353;47.856;12.344;2023-04-03T00:57:35;7.40;99.90
16485;DHT22;8353;47.856;12.344;2023-04-03T01:00:23;7.40;99.90
16485;DHT22;8353;47.856;12.344;2023-04-03T01:03:10;7.50;99.90
16485;DHT22;8353;47.856;12.344;2023-04-03T01:05:57;7.40;99.90
16485;DHT22;8353;47.856;12.344;2023-04-03T01:08:45;7.40;99.90
16485;DHT22;8353;47.856;12.344;2023-04-03T01:11:33;7.30;99.90
16485;DHT22;8353;47.856;12.344;2023-04-03T01:14:20;7.60;99.90
16485;DHT22;8353;47.856;12.344;2023-04-03T01:17:26;7.70;99.90
16485;DHT22;8353;47.856;12.344;2023-04-03T01:20:50;7.60;99.90
16485;DHT22;8353;47.856;12.344;2023-04-03T01:24:17;7.70;99.90
16485;DHT22;8353;47.856;12.344;2023-04-03T01:27:09;7.90;99.90
16485;DHT22;8353;47.856;12.344;2023-04-03T01:29:58;7.80;99.90
16485;DHT22;8353;47.856;12.344;2023-04-03T01:32:47;7.70;99.90
16485;DHT22;8353;47.856;12.344;2023-04-03T01:35:34;7.80;99.90
16485;DHT22;8353;47.856;12.344;2023-04-03T01:38:21;7.80;99.90
16485;DHT22;8353;47.856;12.344;2023-04-03T01:41:08;7.90;99.90
16485;DHT22;8353;47.856;12.344;2023-04-03T01:43:55;7.90;99.90
16485;DHT22;8353;47.856;12.344;2023-04-03T01:46:43;7.80;99.90
16485;DHT22;8353;47.856;12.344;2023-04-03T01:49:31;7.90;99.90
16485;DHT22;8353;47.856;12.344;2023-04-03T01:52:18;7.80;99.90
16485;DHT22;8353;47.856;12.344;2023-04-03T01:55:06;7.80;99.90
16485;DHT22;8353;47.856;12.344;2023-04-03T01:57:53;7.70;99.90
16485;DHT22;8353;47.856;12.344;2023-04-03T02:00:40;7.80;99.90
16485;DHT22;8353;47.856;12.344;2023-04-03T02:03:27;7.90;99.90
16485;DHT22;8353;47.856;12.344;2023-04-03T02:06:15;7.80;99.90
16485;DHT22;8353;47.856;12.344;2023-04-03T02:09:02;7.80;99.90
16485;DHT22;8353;47.856;12.344;2023-04-03T02:11:49;7.80;99.90
16485;DHT22;8353;47.856;12.344;2023-04-03T02:14:36;7.50;99.90
16485;DHT22;8353;47.856;12.344;2023-04-03T02:17:24;7.10;99.90
16485;DHT22;8353;47.856;12.344;2023-04-03T02:20:11;7.30;99.90
16485;DHT22;8353;47.856;12.344;2023-04-03T02:22:59;7.50;99.90
16485;DHT22;8353;47.856;12.344;2023-04-03T02:25:46;7.80;99.90
16485;DHT22;8353;47.856;12.344;2023-04-03T02:28:34;8.00;99.90
16485;DHT22;8353;47.856;12.344;2023-04-03T02:31:22;7.80;99.90
16485;DHT22;8353;47.856;12.344;2023-04-03T02:34:09;7.80;99.90
16485;DHT22;8353;47.856;12.344;2023-04-03T02:36:56;7.70;99.90
16485;DHT22;8353;47.856;12.344;2023-04-03T02:39:44;7.70;99.90
16485;DHT22;8353;47.856;12.344;2023-04-03T02:42:32;7.70;99.90
16485;DHT22;8353;47.856;12.344;2023-04-03T02:45:18;7.50;99.90
16485;DHT22;8353;47.856;12.344;2023-04-03T02:48:05;7.60;99.90
16485;DHT22;8353;47.856;12.344;2023-04-03T02:50:52;7.50;99.90
16485;DHT22;8353;47.856;12.344;2023-04-03T02:53:39;7.60;99.90
16485;DHT22;8353;47.856;12.344;2023-04-03T02:56:27;7.70;99.90
16485;DHT22;8353;47.856;12.344;2023-04-03T02:59:14;7.70;99.90
16485;DHT22;8353;47.856;12.344;2023-04-03T03:02:01;7.90;99.90
16485;DHT22;8353;47.856;12.344;2023-04-03T03:04:47;7.90;99.90
16485;DHT22;8353;47.856;12.344;2023-04-03T03:07:34;8.00;99.90
16485;DHT22;8353;47.856;12.344;2023-04-03T03:10:22;8.00;99.90
16485;DHT22;8353;47.856;12.344;2023-04-03T03:13:10;7.80;99.90
16485;DHT22;8353;47.856;12.344;2023-04-03T03:15:57;7.80;99.90
16485;DHT22;8353;47.856;12.344;2023-04-03T03:18:44;7.90;99.90
16485;DHT22;8353;47.856;12.344;2023-04-03T03:21:31;7.80;99.90
16485;DHT22;8353;47.856;12.344;2023-04-03T03:24:18;7.60;99.90
16485;DHT22;8353;47.856;12.344;2023-04-03T03:27:05;7.70;99.90
16485;DHT22;8353;47.856;12.344;2023-04-03T03:29:53;7.50;99.90
16485;DHT22;8353;47.856;12.344;2023-04-03T03:32:40;7.40;99.90
16485;DHT22;8353;47.856;12.344;2023-04-03T03:35:27;7.30;99.90
16485;DHT22;8353;47.856;12.344;2023-04-03T03:38:14;7.40;99.90
16485;DHT22;8353;47.856;12.344;2023-04-03T03:41:01;7.20;99.90
16485;DHT22;8353;47.856;12.344;2023-04-03T03:43:47;7.30;99.90
16485;DHT22;8353;47.856;12.344;2023-04-03T03:46:36;7.40;99.90
16485;DHT22;8353;47.856;12.344;2023-04-03T03:49:23;7.70;99.90
16485;DHT22;8353;47.856;12.344;2023-04-03T03:52:10;7.70;99.90
16485;DHT22;8353;47.856;12.344;2023-04-03T03:54:57;7.70;99.90
16485;DHT22;8353;47.856;12.344;2023-04-03T03:57:43;7.70;99.90
16485;DHT22;8353;47.856;12.344;2023-04-03T04:00:30;7.70;99.90
16485;DHT22;8353;47.856;12.344;2023-04-03T04:03:18;7.80;99.90
16485;DHT22;8353;47.856;12.344;2023-04-03T04:06:06;7.80;99.90
16485;DHT22;8353;47.856;12.344;2023-04-03T04:08:53;7.90;99.90
16485;DHT22;8353;47.856;12.344;2023-04-03T04:11:40;7.90;99.90
16485;DHT22;8353;47.856;12.344;2023-04-03T04:14:27;7.80;99.90
16485;DHT22;8353;47.856;12.344;2023-04-03T04:17:14;7.70;99.90
16485;DHT22;8353;47.856;12.344;2023-04-03T04:20:02;7.70;99.90
16485;DHT22;8353;47.856;12.344;2023-04-03T04:22:50;7.60;99.90
16485;DHT22;8353;47.856;12.344;2023-04-03T04:25:37;7.50;99.90
16485;DHT22;8353;47.856;12.344;2023-04-03T04:28:24;7.50;99.90
16485;DHT22;8353;47.856;12.344;2023-04-03T04:31:10;7.70;99.90
16485;DHT22;8353;47.856;12.344;2023-04-03T04:33:57;7.80;99.90
16485;DHT22;8353;47.856;12.344;2023-04-03T04:36:45;7.80;99.90
16485;DHT22;8353;47.856;12.344;2023-04-03T04:39:32;7.70;99.90
16485;DHT22;8353;47.856;12.344;2023-04-03T04:42:20;7.70;99.90
16485;DHT22;8353;47.856;12.344;2023-04-03T04:45:07;7.60;99.90
16485;DHT22;8353;47.856;12.344;2023-04-03T04:47:55;7.40;99.90
16485;DHT22;8353;47.856;12.344;2023-04-03T04:50:41;7.50;99.90
16485;DHT22;8353;47.856;12.344;2023-04-03T04:53:30;7.40;99.90
16485;DHT22;8353;47.856;12.344;2023-04-03T04:56:17;7.50;99.90
16485;DHT22;8353;47.856;12.344;2023-04-03T04:59:03;7.40;99.90
16485;DHT22;8353;47.856;12.344;2023-04-03T05:01:51;7.50;99.90
16485;DHT22;8353;47.856;12.344;2023-04-03T05:04:38;7.40;99.90
16485;DHT22;8353;47.856;12.344;2023-04-03T05:07:27;7.50;99.90
16485;DHT22;8353;47.856;12.344;2023-04-03T05:10:15;7.10;99.90
16485;DHT22;8353;47.856;12.344;2023-04-03T05:13:02;7.20;99.90
16485;DHT22;8353;47.856;12.344;2023-04-03T05:15:49;7.20;99.90
16485;DHT22;8353;47.856;12.344;2023-04-03T05:18:35;7.30;99.90
16485;DHT22;8353;47.856;12.344;2023-04-03T05:21:22;7.30;99.90
16485;DHT22;8353;47.856;12.344;2023-04-03T05:24:11;7.40;99.90
16485;DHT22;8353;47.856;12.344;2023-04-03T05:26:59;7.30;99.90
16485;DHT22;8353;47.856;12.344;2023-04-03T05:29:48;7.30;99.90
16485;DHT22;8353;47.856;12.344;2023-04-03T05:32:35;7.40;99.90
16485;DHT22;8353;47.856;12.344;2023-04-03T05:35:21;7.20;99.90
16485;DHT22;8353;47.856;12.344;2023-04-03T05:38:08;7.30;99.90
16485;DHT22;8353;47.856;12.344;2023-04-03T05:40:55;7.30;99.90
16485;DHT22;8353;47.856;12.344;2023-04-03T05:43:43;7.20;99.90
16485;DHT22;8353;47.856;12.344;2023-04-03T05:46:31;7.30;99.90
16485;DHT22;8353;47.856;12.344;2023-04-03T05:49:18;7.10;99.90
16485;DHT22;8353;47.856;12.344;2023-04-03T05:52:05;7.00;99.90
16485;DHT22;8353;47.856;12.344;2023-04-03T05:54:53;7.20;99.90
16485;DHT22;8353;47.856;12.344;2023-04-03T05:57:40;7.30;99.90
16485;DHT22;8353;47.856;12.344;2023-04-03T06:00:28;7.30;99.90
16485;DHT22;8353;47.856;12.344;2023-04-03T06:03:16;7.20;99.90
16485;DHT22;8353;47.856;12.344;2023-04-03T06:06:04;7.50;99.90
16485;DHT22;8353;47.856;12.344;2023-04-03T06:08:52;7.40;99.90
16485;DHT22;8353;47.856;12.344;2023-04-03T06:11:41;7.10;99.90
16485;DHT22;8353;47.856;12.344;2023-04-03T06:14:30;7.20;99.90
16485;DHT22;8353;47.856;12.344;2023-04-03T06:17:18;7.20;99.90
16485;DHT22;8353;47.856;12.344;2023-04-03T06:20:07;7.20;99.90
16485;DHT22;8353;47.856;12.344;2023-04-03T06:22:54;7.30;99.90
16485;DHT22;8353;47.856;12.344;2023-04-03T06:25:41;7.10;99.90
16485;DHT22;8353;47.856;12.344;2023-04-03T06:28:28;6.90;99.90
16485;DHT22;8353;47.856;12.344;2023-04-03T06:31:15;6.90;99.90
16485;DHT22;8353;47.856;12.344;2023-04-03T06:34:04;6.90;99.90
16485;DHT22;8353;47.856;12.344;2023-04-03T06:36:51;6.90;99.90
16485;DHT22;8353;47.856;12.344;2023-04-03T06:39:38;7.00;99.90
16485;DHT22;8353;47.856;12.344;2023-04-03T06:42:25;7.00;99.90
16485;DHT22;8353;47.856;12.344;2023-04-03T06:45:13;6.90;99.90
16485;DHT22;8353;47.856;12.344;2023-04-03T06:48:03;7.00;99.90
16485;DHT22;8353;47.856;12.344;2023-04-03T06:50:53;7.10;99.90
16485;DHT22;8353;47.856;12.344;2023-04-03T06:53:40;7.20;99.90
16485;DHT22;8353;47.856;12.344;2023-04-03T06:56:29;7.00;99.90
16485;DHT22;8353;47.856;12.344;2023-04-03T06:59:17;7.00;99.90
16485;DHT22;8353;47.856;12.344;2023-04-03T07:02:04;7.00;99.90
16485;DHT22;8353;47.856;12.344;2023-04-03T07:04:51;7.10;99.90
16485;DHT22;8353;47.856;12.344;2023-04-03T07:07:45;7.30;99.90
16485;DHT22;8353;47.856;12.344;2023-04-03T07:10:32;7.10;99.90
16485;DHT22;8353;47.856;12.344;2023-04-03T07:13:19;7.00;99.90
16485;DHT22;8353;47.856;12.344;2023-04-03T07:16:08;6.80;99.90
16485;DHT22;8353;47.856;12.344;2023-04-03T07:18:55;7.00;99.90
16485;DHT22;8353;47.856;12.344;2023-04-03T07:21:47;7.10;99.90
16485;DHT22;8353;47.856;12.344;2023-04-03T07:24:35;7.30;99.90
16485;DHT22;8353;47.856;12.344;2023-04-03T07:27:22;7.30;99.90
16485;DHT22;8353;47.856;12.344;2023-04-03T07:30:13;7.30;99.90
16485;DHT22;8353;47.856;12.344;2023-04-03T07:33:06;7.20;99.90
16485;DHT22;8353;47.856;12.344;2023-04-03T07:35:53;7.30;99.90
16485;DHT22;8353;47.856;12.344;2023-04-03T07:38:39;7.30;99.90
16485;DHT22;8353;47.856;12.344;2023-04-03T07:41:28;7.30;99.90
16485;DHT22;8353;47.856;12.344;2023-04-03T07:44:17;7.30;99.90
16485;DHT22;8353;47.856;12.344;2023-04-03T07:47:04;7.40;99.90
16485;DHT22;8353;47.856;12.344;2023-04-03T07:49:51;7.60;99.90
16485;DHT22;8353;47.856;12.344;2023-04-03T07:52:40;7.60;99.90
16485;DHT22;8353;47.856;12.344;2023-04-03T07:55:27;7.70;99.90
16485;DHT22;8353;47.856;12.344;2023-04-03T07:58:17;7.70;99.90
16485;DHT22;8353;47.856;12.344;2023-04-03T08:01:04;7.80;99.90
16485;DHT22;8353;47.856;12.344;2023-04-03T08:03:51;7.70;99.90
16485;DHT22;8353;47.856;12.344;2023-04-03T08:06:38;7.70;99.90
16485;DHT22;8353;47.856;12.344;2023-04-03T08:09:25;7.70;99.90
16485;DHT22;8353;47.856;12.344;2023-04-03T08:12:12;7.80;99.90
16485;DHT22;8353;47.856;12.344;2023-04-03T08:15:02;7.80;99.90
16485;DHT22;8353;47.856;12.344;2023-04-03T08:17:49;8.00;99.90
16485;DHT22;8353;47.856;12.344;2023-04-03T08:20:39;8.10;99.90
16485;DHT22;8353;47.856;12.344;2023-04-03T08:23:26;8.00;99.90
16485;DHT22;8353;47.856;12.344;2023-04-03T08:26:15;8.10;99.90
16485;DHT22;8353;47.856;12.344;2023-04-03T08:29:02;8.10;99.90
16485;DHT22;8353;47.856;12.344;2023-04-03T08:31:52;8.10;99.90
16485;DHT22;8353;47.856;12.344;2023-04-03T08:34:39;8.10;99.90
16485;DHT22;8353;47.856;12.344;2023-04-03T08:37:26;7.90;99.90
16485;DHT22;8353;47.856;12.344;2023-04-03T08:40:15;7.90;99.90
16485;DHT22;8353;47.856;12.344;2023-04-03T08:43:13;7.90;99.90
16485;DHT22;8353;47.856;12.344;2023-04-03T08:46:06;7.60;99.90
16485;DHT22;8353;47.856;12.344;2023-04-03T08:48:59;7.90;99.90
16485;DHT22;8353;47.856;12.344;2023-04-03T08:51:47;8.00;99.90
16485;DHT22;8353;47.856;12.344;2023-04-03T08:54:40;8.20;99.90
16485;DHT22;8353;47.856;12.344;2023-04-03T08:57:32;8.40;99.90
16485;DHT22;8353;47.856;12.344;2023-04-03T09:00:23;8.30;99.90
16485;DHT22;8353;47.856;12.344;2023-04-03T09:03:12;8.00;99.90
16485;DHT22;8353;47.856;12.344;2023-04-03T09:06:04;7.80;99.90
16485;DHT22;8353;47.856;12.344;2023-04-03T09:08:58;7.90;99.90
16485;DHT22;8353;47.856;12.344;2023-04-03T09:11:55;8.10;99.90
16485;DHT22;8353;47.856;12.344;2023-04-03T09:14:52;8.30;99.90
16485;DHT22;8353;47.856;12.344;2023-04-03T09:17:59;8.30;99.90
16485;DHT22;8353;47.856;12.344;2023-04-03T09:20:57;8.40;99.90
16485;DHT22;8353;47.856;12.344;2023-04-03T09:23:50;8.70;99.90
16485;DHT22;8353;47.856;12.344;2023-04-03T09:26:43;8.90;99.90
16485;DHT22;8353;47.856;12.344;2023-04-03T09:29:40;9.20;99.90
16485;DHT22;8353;47.856;12.344;2023-04-03T09:32:32;9.20;99.90
16485;DHT22;8353;47.856;12.344;2023-04-03T09:35:22;9.30;99.90
16485;DHT22;8353;47.856;12.344;2023-04-03T09:38:20;9.40;99.90
16485;DHT22;8353;47.856;12.344;2023-04-03T09:41:21;9.30;99.90
16485;DHT22;8353;47.856;12.344;2023-04-03T09:44:21;8.90;99.90
16485;DHT22;8353;47.856;12.344;2023-04-03T09:47:19;8.80;99.90
16485;DHT22;8353;47.856;12.344;2023-04-03T09:50:19;8.90;99.90
16485;DHT22;8353;47.856;12.344;2023-04-03T09:53:12;9.10;99.90
16485;DHT22;8353;47.856;12.344;2023-04-03T09:56:24;9.30;99.90
16485;DHT22;8353;47.856;12.344;2023-04-03T09:59:14;9.30;99.90
16485;DHT22;8353;47.856;12.344;2023-04-03T10:02:04;9.40;99.90
16485;DHT22;8353;47.856;12.344;2023-04-03T10:05:04;9.40;99.90
16485;DHT22;8353;47.856;12.344;2023-04-03T10:08:07;9.20;99.90
16485;DHT22;8353;47.856;12.344;2023-04-03T10:11:10;9.10;99.90
16485;DHT22;8353;47.856;12.344;2023-04-03T10:14:00;9.40;99.90
16485;DHT22;8353;47.856;12.344;2023-04-03T10:16:50;9.30;99.90
16485;DHT22;8353;47.856;12.344;2023-04-03T10:19:41;9.20;99.90
16485;DHT22;8353;47.856;12.344;2023-04-03T10:22:38;9.30;99.90
16485;DHT22;8353;47.856;12.344;2023-04-03T10:25:33;9.50;99.90
16485;DHT22;8353;47.856;12.344;2023-04-03T10:28:25;9.70;99.90
16485;DHT22;8353;47.856;12.344;2023-04-03T10:31:20;10.00;99.90
16485;DHT22;8353;47.856;12.344;2023-04-03T10:34:15;9.90;99.90
16485;DHT22;8353;47.856;12.344;2023-04-03T10:37:10;10.00;99.90
16485;DHT22;8353;47.856;12.344;2023-04-03T10:40:02;10.10;99.90
16485;DHT22;8353;47.856;12.344;2023-04-03T10:42:57;9.90;99.90
16485;DHT22;8353;47.856;12.344;2023-04-03T10:45:52;9.70;99.90
16485;DHT22;8353;47.856;12.344;2023-04-03T10:48:58;9.50;99.90
16485;DHT22;8353;47.856;12.344;2023-04-03T10:51:51;9.60;99.90
16485;DHT22;8353;47.856;12.344;2023-04-03T10:54:46;9.70;99.90
16485;DHT22;8353;47.856;12.344;2023-04-03T10:57:36;9.70;99.90
16485;DHT22;8353;47.856;12.344;2023-04-03T11:00:29;9.90;99.90
16485;DHT22;8353;47.856;12.344;2023-04-03T11:03:26;10.00;99.90
16485;DHT22;8353;47.856;12.344;2023-04-03T11:06:17;9.80;99.90
16485;DHT22;8353;47.856;12.344;2023-04-03T11:09:10;9.80;99.90
16485;DHT22;8353;47.856;12.344;2023-04-03T11:12:10;9.80;99.90
16485;DHT22;8353;47.856;12.344;2023-04-03T11:15:02;9.90;99.90
16485;DHT22;8353;47.856;12.344;2023-04-03T11:17:54;10.20;99.90
16485;DHT22;8353;47.856;12.344;2023-04-03T11:20:44;10.30;99.90
16485;DHT22;8353;47.856;12.344;2023-04-03T11:23:36;10.00;99.90
16485;DHT22;8353;47.856;12.344;2023-04-03T11:26:30;10.00;99.90
16485;DHT22;8353;47.856;12.344;2023-04-03T11:29:23;10.10;99.90
16485;DHT22;8353;47.856;12.344;2023-04-03T11:32:34;10.30;99.90
16485;DHT22;8353;47.856;12.344;2023-04-03T11:35:25;10.40;99.90
16485;DHT22;8353;47.856;12.344;2023-04-03T11:38:19;10.40;99.90
16485;DHT22;8353;47.856;12.344;2023-04-03T11:41:10;10.70;99.90
16485;DHT22;8353;47.856;12.344;2023-04-03T11:43:59;10.90;99.90
16485;DHT22;8353;47.856;12.344;2023-04-03T11:46:51;10.80;99.90
16485;DHT22;8353;47.856;12.344;2023-04-03T11:49:59;10.70;99.90
16485;DHT22;8353;47.856;12.344;2023-04-03T11:53:25;10.50;99.90
16485;DHT22;8353;47.856;12.344;2023-04-03T11:56:38;10.40;99.90
16485;DHT22;8353;47.856;12.344;2023-04-03T11:59:25;10.20;99.90
16485;DHT22;8353;47.856;12.344;2023-04-03T12:02:35;10.20;99.90
16485;DHT22;8353;47.856;12.344;2023-04-03T12:05:27;10.00;99.90
16485;DHT22;8353;47.856;12.344;2023-04-03T12:08:24;10.00;99.90
16485;DHT22;8353;47.856;12.344;2023-04-03T12:11:24;10.00;99.90
16485;DHT22;8353;47.856;12.344;2023-04-03T12:14:15;9.90;99.90
16485;DHT22;8353;47.856;12.344;2023-04-03T12:17:11;9.90;99.90
16485;DHT22;8353;47.856;12.344;2023-04-03T12:23:28;9.20;99.90
16485;DHT22;8353;47.856;12.344;2023-04-03T12:26:20;8.60;99.90
16485;DHT22;8353;47.856;12.344;2023-04-03T12:29:17;8.70;99.90
16485;DHT22;8353;47.856;12.344;2023-04-03T12:32:10;8.60;99.90
16485;DHT22;8353;47.856;12.344;2023-04-03T12:35:08;8.70;99.90
16485;DHT22;8353;47.856;12.344;2023-04-03T12:38:19;8.50;99.90
16485;DHT22;8353;47.856;12.344;2023-04-03T12:41:21;8.40;99.90
16485;DHT22;8353;47.856;12.344;2023-04-03T12:44:38;8.80;99.90
16485;DHT22;8353;47.856;12.344;2023-04-03T12:47:32;9.20;99.90
16485;DHT22;8353;47.856;12.344;2023-04-03T12:50:24;8.80;99.90
16485;DHT22;8353;47.856;12.344;2023-04-03T12:53:22;8.90;99.90
16485;DHT22;8353;47.856;12.344;2023-04-03T12:56:25;8.50;99.90
16485;DHT22;8353;47.856;12.344;2023-04-03T12:59:14;8.30;99.90
16485;DHT22;8353;47.856;12.344;2023-04-03T13:02:15;8.40;99.90
16485;DHT22;8353;47.856;12.344;2023-04-03T13:05:08;7.80;99.90
16485;DHT22;8353;47.856;12.344;2023-04-03T13:07:58;7.30;99.90
16485;DHT22;8353;47.856;12.344;2023-04-03T13:10:52;7.40;99.90
16485;DHT22;8353;47.856;12.344;2023-04-03T13:13:40;7.50;99.90
16485;DHT22;8353;47.856;12.344;2023-04-03T13:16:40;7.50;99.90
16485;DHT22;8353;47.856;12.344;2023-04-03T13:19:29;7.40;99.90
16485;DHT22;8353;47.856;12.344;2023-04-03T13:22:28;7.20;99.90
16485;DHT22;8353;47.856;12.344;2023-04-03T13:25:20;7.30;99.90
16485;DHT22;8353;47.856;12.344;2023-04-03T13:28:12;7.70;99.90
16485;DHT22;8353;47.856;12.344;2023-04-03T13:31:04;7.80;99.90
16485;DHT22;8353;47.856;12.344;2023-04-03T13:33:57;7.80;99.90
16485;DHT22;8353;47.856;12.344;2023-04-03T13:36:56;8.10;99.90
16485;DHT22;8353;47.856;12.344;2023-04-03T13:39:43;8.30;99.90
16485;DHT22;8353;47.856;12.344;2023-04-03T13:42:32;8.60;99.90
16485;DHT22;8353;47.856;12.344;2023-04-03T13:45:21;8.40;99.90
16485;DHT22;8353;47.856;12.344;2023-04-03T13:48:16;8.40;99.90
16485;DHT22;8353;47.856;12.344;2023-04-03T13:51:06;8.60;99.90
16485;DHT22;8353;47.856;12.344;2023-04-03T13:53:56;8.50;99.90
16485;DHT22;8353;47.856;12.344;2023-04-03T13:56:46;8.60;99.90
16485;DHT22;8353;47.856;12.344;2023-04-03T13:59:35;8.80;99.90
16485;DHT22;8353;47.856;12.344;2023-04-03T14:02:29;9.00;99.90
16485;DHT22;8353;47.856;12.344;2023-04-03T14:05:16;9.10;99.90
16485;DHT22;8353;47.856;12.344;2023-04-03T14:08:06;9.00;99.90
16485;DHT22;8353;47.856;12.344;2023-04-03T14:10:57;8.60;99.90
16485;DHT22;8353;47.856;12.344;2023-04-03T14:13:44;7.80;99.90
16485;DHT22;8353;47.856;12.344;2023-04-03T14:16:35;8.00;99.90
16485;DHT22;8353;47.856;12.344;2023-04-03T14:19:25;8.40;99.90
16485;DHT22;8353;47.856;12.344;2023-04-03T14:22:18;8.50;99.90
16485;DHT22;8353;47.856;12.344;2023-04-03T14:25:05;8.20;99.90
16485;DHT22;8353;47.856;12.344;2023-04-03T14:27:55;7.90;99.90
16485;DHT22;8353;47.856;12.344;2023-04-03T14:30:44;8.20;99.90
16485;DHT22;8353;47.856;12.344;2023-04-03T14:33:31;8.70;99.90
16485;DHT22;8353;47.856;12.344;2023-04-03T14:36:23;9.00;99.90
16485;DHT22;8353;47.856;12.344;2023-04-03T14:39:13;9.00;99.90
16485;DHT22;8353;47.856;12.344;2023-04-03T14:42:12;9.10;99.90
16485;DHT22;8353;47.856;12.344;2023-04-03T14:45:06;8.60;99.90
16485;DHT22;8353;47.856;12.344;2023-04-03T14:47:55;8.00;99.90
16485;DHT22;8353;47.856;12.344;2023-04-03T14:50:47;8.00;99.90
16485;DHT22;8353;47.856;12.344;2023-04-03T14:53:34;8.70;99.90
16485;DHT22;8353;47.856;12.344;2023-04-03T14:56:28;8.90;99.90
16485;DHT22;8353;47.856;12.344;2023-04-03T14:59:15;8.90;99.90
16485;DHT22;8353;47.856;12.344;2023-04-03T15:02:20;8.80;99.90
16485;DHT22;8353;47.856;12.344;2023-04-03T15:05:11;8.90;99.90
16485;DHT22;8353;47.856;12.344;2023-04-03T15:07:59;8.90;99.90
16485;DHT22;8353;47.856;12.344;2023-04-03T15:10:49;9.10;99.90
16485;DHT22;8353;47.856;12.344;2023-04-03T15:13:39;9.20;99.90
16485;DHT22;8353;47.856;12.344;2023-04-03T15:16:26;9.00;99.90
16485;DHT22;8353;47.856;12.344;2023-04-03T15:19:15;8.60;99.90
16485;DHT22;8353;47.856;12.344;2023-04-03T15:22:02;8.50;99.90
16485;DHT22;8353;47.856;12.344;2023-04-03T15:24:48;8.30;99.90
16485;DHT22;8353;47.856;12.344;2023-04-03T15:27:36;8.60;99.90
16485;DHT22;8353;47.856;12.344;2023-04-03T15:30:23;8.60;99.90
16485;DHT22;8353;47.856;12.344;2023-04-03T15:33:11;8.80;99.90
16485;DHT22;8353;47.856;12.344;2023-04-03T15:35:59;8.40;99.90
16485;DHT22;8353;47.856;12.344;2023-04-03T15:38:46;8.30;99.90
16485;DHT22;8353;47.856;12.344;2023-04-03T15:41:33;8.40;99.90
16485;DHT22;8353;47.856;12.344;2023-04-03T15:44:20;8.60;99.90
16485;DHT22;8353;47.856;12.344;2023-04-03T15:47:09;8.80;99.90
16485;DHT22;8353;47.856;12.344;2023-04-03T15:49:56;8.40;99.90
16485;DHT22;8353;47.856;12.344;2023-04-03T15:52:44;8.60;99.90
16485;DHT22;8353;47.856;12.344;2023-04-03T15:55:33;9.00;99.90
16485;DHT22;8353;47.856;12.344;2023-04-03T15:58:20;9.20;99.90
16485;DHT22;8353;47.856;12.344;2023-04-03T16:01:11;9.40;99.90
16485;DHT22;8353;47.856;12.344;2023-04-03T16:03:58;9.50;99.90
16485;DHT22;8353;47.856;12.344;2023-04-03T16:06:45;9.40;99.90
16485;DHT22;8353;47.856;12.344;2023-04-03T16:09:34;9.20;99.90
16485;DHT22;8353;47.856;12.344;2023-04-03T16:12:22;9.00;99.90
16485;DHT22;8353;47.856;12.344;2023-04-03T16:15:10;8.90;99.90
16485;DHT22;8353;47.856;12.344;2023-04-03T16:17:57;8.80;99.90
16485;DHT22;8353;47.856;12.344;2023-04-03T16:20:44;8.50;99.90
16485;DHT22;8353;47.856;12.344;2023-04-03T16:23:31;8.20;99.90
16485;DHT22;8353;47.856;12.344;2023-04-03T16:26:19;7.60;99.90
16485;DHT22;8353;47.856;12.344;2023-04-03T16:29:06;8.00;99.90
16485;DHT22;8353;47.856;12.344;2023-04-03T16:31:53;8.30;99.90
16485;DHT22;8353;47.856;12.344;2023-04-03T16:34:40;7.80;99.90
16485;DHT22;8353;47.856;12.344;2023-04-03T16:37:27;8.00;99.90
16485;DHT22;8353;47.856;12.344;2023-04-03T16:40:14;8.30;99.90
16485;DHT22;8353;47.856;12.344;2023-04-03T16:43:02;7.90;99.90
16485;DHT22;8353;47.856;12.344;2023-04-03T16:45:49;7.30;99.90
16485;DHT22;8353;47.856;12.344;2023-04-03T16:48:36;7.30;99.90
16485;DHT22;8353;47.856;12.344;2023-04-03T16:51:23;7.70;99.90
16485;DHT22;8353;47.856;12.344;2023-04-03T16:54:10;7.30;99.90
16485;DHT22;8353;47.856;12.344;2023-04-03T16:56:58;7.30;99.90
16485;DHT22;8353;47.856;12.344;2023-04-03T16:59:47;7.30;99.90
16485;DHT22;8353;47.856;12.344;2023-04-03T17:02:34;7.30;99.90
16485;DHT22;8353;47.856;12.344;2023-04-03T17:05:20;7.50;99.90
16485;DHT22;8353;47.856;12.344;2023-04-03T17:08:07;7.80;99.90
16485;DHT22;8353;47.856;12.344;2023-04-03T17:10:54;8.10;99.90
16485;DHT22;8353;47.856;12.344;2023-04-03T17:13:41;8.20;99.90
16485;DHT22;8353;47.856;12.344;2023-04-03T17:16:30;8.10;99.90
16485;DHT22;8353;47.856;12.344;2023-04-03T17:19:19;8.20;99.90
16485;DHT22;8353;47.856;12.344;2023-04-03T17:22:06;8.30;99.90
16485;DHT22;8353;47.856;12.344;2023-04-03T17:24:55;8.40;99.90
16485;DHT22;8353;47.856;12.344;2023-04-03T17:27:42;8.50;99.90
16485;DHT22;8353;47.856;12.344;2023-04-03T17:30:29;8.50;99.90
16485;DHT22;8353;47.856;12.344;2023-04-03T17:33:17;8.40;99.90
16485;DHT22;8353;47.856;12.344;2023-04-03T17:36:05;8.50;99.90
16485;DHT22;8353;47.856;12.344;2023-04-03T17:38:52;8.50;99.90
16485;DHT22;8353;47.856;12.344;2023-04-03T17:41:39;8.30;99.90
16485;DHT22;8353;47.856;12.344;2023-04-03T17:44:26;8.30;99.90
16485;DHT22;8353;47.856;12.344;2023-04-03T17:47:13;8.00;99.90
16485;DHT22;8353;47.856;12.344;2023-04-03T17:50:01;7.50;99.90
16485;DHT22;8353;47.856;12.344;2023-04-03T17:52:48;7.40;99.90
16485;DHT22;8353;47.856;12.344;2023-04-03T17:55:36;7.50;99.90
16485;DHT22;8353;47.856;12.344;2023-04-03T17:58:23;7.70;99.90
16485;DHT22;8353;47.856;12.344;2023-04-03T18:01:13;7.50;99.90
16485;DHT22;8353;47.856;12.344;2023-04-03T18:04:02;7.70;99.90
16485;DHT22;8353;47.856;12.344;2023-04-03T18:06:52;7.50;99.90
16485;DHT22;8353;47.856;12.344;2023-04-03T18:09:40;7.10;99.90
16485;DHT22;8353;47.856;12.344;2023-04-03T18:12:27;7.00;99.90
16485;DHT22;8353;47.856;12.344;2023-04-03T18:15:14;7.10;99.90